sensor_id;sensor_type;location;lat;lon;timestamp;pressure;altitude;pressure_sealevel;temperature;humidity
62510;BME280;48558;48.242;11.654;2023-10-08T00:02:29;96951.47;;;17.62;48.13
62510;BME280;48558;48.242;11.654;2023-10-08T00:06:42;96966.13;;;17.77;47.61
62510;BME280;48558;48.242;11.654;2023-10-08T00:11:02;96952.63;;;17.75;47.30
62510;BME280;48558;48.242;11.654;2023-10-08T00:15:24;96947.94;;;17.61;48.34
62510;BME280;48558;48.242;11.654;2023-10-08T00:19:38;96946.13;;;17.58;47.67
62510;BME280;48558;48.242;11.654;2023-10-08T00:23:52;96938.88;;;17.72;47.27
62510;BME280;48558;48.242;11.654;2023-10-08T00:28:08;96941.28;;;17.84;46.82
62510;BME280;48558;48.242;11.654;2023-10-08T00:32:24;96942.59;;;17.89;46.84
62510;BME280;48558;48.242;11.654;2023-10-08T00:36:41;96944.84;;;17.85;47.53
62510;BME280;48558;48.242;11.654;2023-10-08T00:40:54;96937.16;;;17.80;47.14
62510;BME280;48558;48.242;11.654;2023-10-08T00:45:08;96936.69;;;17.81;46.95
62510;BME280;48558;48.242;11.654;2023-10-08T00:49:26;96942.56;;;17.83;47.48
62510;BME280;48558;48.242;11.654;2023-10-08T00:54:03;96931.38;;;17.83;46.96
62510;BME280;48558;48.242;11.654;2023-10-08T00:58:20;96941.06;;;17.88;46.79
62510;BME280;48558;48.242;11.654;2023-10-08T01:02:39;96927.78;;;17.83;48.00
62510;BME280;48558;48.242;11.654;2023-10-08T01:06:58;96934.66;;;17.82;46.85
62510;BME280;48558;48.242;11.654;2023-10-08T01:11:20;96931.38;;;17.83;46.67
62510;BME280;48558;48.242;11.654;2023-10-08T01:15:44;96929.34;;;17.84;46.50
62510;BME280;48558;48.242;11.654;2023-10-08T01:19:57;96937.47;;;17.82;46.70
62510;BME280;48558;48.242;11.654;2023-10-08T01:24:21;96931.69;;;17.91;46.49
62510;BME280;48558;48.242;11.654;2023-10-08T01:28:37;96929.63;;;17.86;46.62
62510;BME280;48558;48.242;11.654;2023-10-08T01:32:49;96914.53;;;17.78;46.23
62510;BME280;48558;48.242;11.654;2023-10-08T01:37:03;96917.66;;;17.85;46.56
62510;BME280;48558;48.242;11.654;2023-10-08T01:41:21;96908.06;;;17.66;46.80
62510;BME280;48558;48.242;11.654;2023-10-08T01:45:44;96901.47;;;17.64;46.54
62510;BME280;48558;48.242;11.654;2023-10-08T01:50:00;96913.50;;;17.75;46.20
62510;BME280;48558;48.242;11.654;2023-10-08T01:54:18;96904.13;;;17.78;46.36
62510;BME280;48558;48.242;11.654;2023-10-08T01:58:33;96909.94;;;17.75;45.99
62510;BME280;48558;48.242;11.654;2023-10-08T02:02:46;96910.69;;;17.75;46.42
62510;BME280;48558;48.242;11.654;2023-10-08T02:06:59;96899.31;;;17.79;46.11
62510;BME280;48558;48.242;11.654;2023-10-08T02:11:12;96912.69;;;17.69;46.42
62510;BME280;48558;48.242;11.654;2023-10-08T02:15:27;96905.28;;;17.66;46.55
62510;BME280;48558;48.242;11.654;2023-10-08T02:19:40;96906.56;;;17.65;46.70
62510;BME280;48558;48.242;11.654;2023-10-08T02:23:54;96907.16;;;17.75;46.33
62510;BME280;48558;48.242;11.654;2023-10-08T02:28:07;96901.19;;;17.62;46.74
62510;BME280;48558;48.242;11.654;2023-10-08T02:32:24;96890.50;;;17.60;46.49
62510;BME280;48558;48.242;11.654;2023-10-08T02:36:38;96890.06;;;17.67;46.47
62510;BME280;48558;48.242;11.654;2023-10-08T02:40:54;96886.22;;;17.65;46.32
62510;BME280;48558;48.242;11.654;2023-10-08T02:45:10;96887.34;;;17.78;45.81
62510;BME280;48558;48.242;11.654;2023-10-08T02:49:25;96878.47;;;17.80;45.80
62510;BME280;48558;48.242;11.654;2023-10-08T02:53:42;96876.75;;;17.88;45.41
62510;BME280;48558;48.242;11.654;2023-10-08T02:57:56;96873.59;;;17.75;45.57
62510;BME280;48558;48.242;11.654;2023-10-08T03:02:13;96875.56;;;17.69;45.52
62510;BME280;48558;48.242;11.654;2023-10-08T03:06:33;96872.84;;;17.74;45.39
62510;BME280;48558;48.242;11.654;2023-10-08T03:10:47;96878.97;;;17.78;45.07
62510;BME280;48558;48.242;11.654;2023-10-08T03:15:08;96873.03;;;17.65;45.21
62510;BME280;48558;48.242;11.654;2023-10-08T03:19:39;96881.31;;;17.85;44.63
62510;BME280;48558;48.242;11.654;2023-10-08T03:23:56;96882.88;;;17.92;44.16
62510;BME280;48558;48.242;11.654;2023-10-08T03:28:11;96882.03;;;17.80;44.93
62510;BME280;48558;48.242;11.654;2023-10-08T03:32:25;96873.09;;;17.76;44.29
62510;BME280;48558;48.242;11.654;2023-10-08T03:36:39;96876.50;;;17.86;44.19
62510;BME280;48558;48.242;11.654;2023-10-08T03:40:56;96875.13;;;17.76;44.46
62510;BME280;48558;48.242;11.654;2023-10-08T03:45:21;96874.94;;;17.54;45.29
62510;BME280;48558;48.242;11.654;2023-10-08T03:49:53;96883.50;;;17.76;44.20
62510;BME280;48558;48.242;11.654;2023-10-08T03:54:07;96876.41;;;17.49;44.86
62510;BME280;48558;48.242;11.654;2023-10-08T03:58:29;96884.00;;;17.49;45.25
62510;BME280;48558;48.242;11.654;2023-10-08T04:02:47;96886.94;;;17.60;45.13
62510;BME280;48558;48.242;11.654;2023-10-08T04:07:13;96889.22;;;17.36;46.26
62510;BME280;48558;48.242;11.654;2023-10-08T04:11:40;96880.13;;;17.15;47.45
62510;BME280;48558;48.242;11.654;2023-10-08T04:16:13;96841.88;;;16.95;47.41
62510;BME280;48558;48.242;11.654;2023-10-08T04:20:30;96863.78;;;17.02;47.90
62510;BME280;48558;48.242;11.654;2023-10-08T04:24:45;96877.88;;;16.93;48.39
62510;BME280;48558;48.242;11.654;2023-10-08T04:29:00;96879.22;;;16.98;47.63
62510;BME280;48558;48.242;11.654;2023-10-08T04:33:15;96882.78;;;16.78;48.31
62510;BME280;48558;48.242;11.654;2023-10-08T04:37:28;96879.50;;;16.80;47.34
62510;BME280;48558;48.242;11.654;2023-10-08T04:41:47;96877.19;;;16.78;47.15
62510;BME280;48558;48.242;11.654;2023-10-08T04:46:05;96876.63;;;16.94;46.64
62510;BME280;48558;48.242;11.654;2023-10-08T04:50:31;96885.72;;;17.15;45.08
62510;BME280;48558;48.242;11.654;2023-10-08T04:54:44;96885.84;;;17.26;44.30
62510;BME280;48558;48.242;11.654;2023-10-08T04:59:03;96893.56;;;17.37;43.88
62510;BME280;48558;48.242;11.654;2023-10-08T05:03:17;96891.25;;;17.35;44.70
62510;BME280;48558;48.242;11.654;2023-10-08T05:07:32;96900.94;;;17.40;43.79
62510;BME280;48558;48.242;11.654;2023-10-08T05:11:57;96910.25;;;17.51;43.49
62510;BME280;48558;48.242;11.654;2023-10-08T05:16:28;96926.78;;;17.55;43.96
62510;BME280;48558;48.242;11.654;2023-10-08T05:21:02;96933.50;;;17.43;43.75
62510;BME280;48558;48.242;11.654;2023-10-08T05:25:41;96936.56;;;17.45;44.77
62510;BME280;48558;48.242;11.654;2023-10-08T05:30:26;96945.50;;;17.49;44.14
62510;BME280;48558;48.242;11.654;2023-10-08T05:35:05;96956.19;;;17.50;44.94
62510;BME280;48558;48.242;11.654;2023-10-08T05:39:38;96957.41;;;17.69;44.62
62510;BME280;48558;48.242;11.654;2023-10-08T05:44:06;96970.31;;;17.61;45.12
62510;BME280;48558;48.242;11.654;2023-10-08T05:48:53;96983.78;;;17.43;46.59
62510;BME280;48558;48.242;11.654;2023-10-08T05:53:18;96987.25;;;17.32;46.84
62510;BME280;48558;48.242;11.654;2023-10-08T05:57:58;96999.75;;;17.37;48.16
62510;BME280;48558;48.242;11.654;2023-10-08T06:02:31;97010.91;;;17.37;46.84
62510;BME280;48558;48.242;11.654;2023-10-08T06:06:50;97004.06;;;17.17;49.25
62510;BME280;48558;48.242;11.654;2023-10-08T06:11:23;97012.81;;;17.25;48.26
62510;BME280;48558;48.242;11.654;2023-10-08T06:15:52;97005.59;;;17.39;47.91
62510;BME280;48558;48.242;11.654;2023-10-08T06:20:07;97005.47;;;17.28;49.21
62510;BME280;48558;48.242;11.654;2023-10-08T06:24:22;96986.34;;;17.20;49.11
62510;BME280;48558;48.242;11.654;2023-10-08T06:28:38;96978.25;;;17.02;50.83
62510;BME280;48558;48.242;11.654;2023-10-08T06:32:51;96979.00;;;17.03;50.19
62510;BME280;48558;48.242;11.654;2023-10-08T06:37:04;96974.59;;;16.96;51.59
62510;BME280;48558;48.242;11.654;2023-10-08T06:41:19;96983.41;;;17.09;50.81
62510;BME280;48558;48.242;11.654;2023-10-08T06:45:51;96985.91;;;17.07;50.43
62510;BME280;48558;48.242;11.654;2023-10-08T06:50:05;97002.38;;;17.26;50.70
62510;BME280;48558;48.242;11.654;2023-10-08T06:54:26;96997.69;;;17.37;50.14
62510;BME280;48558;48.242;11.654;2023-10-08T06:58:46;97009.88;;;17.34;50.90
62510;BME280;48558;48.242;11.654;2023-10-08T07:03:08;97007.13;;;17.60;49.66
62510;BME280;48558;48.242;11.654;2023-10-08T07:07:27;97013.56;;;17.46;50.22
62510;BME280;48558;48.242;11.654;2023-10-08T07:11:44;97004.16;;;17.69;50.23
62510;BME280;48558;48.242;11.654;2023-10-08T07:15:57;97016.13;;;17.69;50.18
62510;BME280;48558;48.242;11.654;2023-10-08T07:20:12;97024.56;;;17.75;50.66
62510;BME280;48558;48.242;11.654;2023-10-08T07:24:34;96994.56;;;18.01;49.97
62510;BME280;48558;48.242;11.654;2023-10-08T07:28:47;97002.22;;;18.37;49.56
62510;BME280;48558;48.242;11.654;2023-10-08T07:32:59;96996.78;;;18.54;49.30
62510;BME280;48558;48.242;11.654;2023-10-08T07:37:12;97004.66;;;18.55;49.01
62510;BME280;48558;48.242;11.654;2023-10-08T07:41:26;96996.81;;;18.59;49.65
62510;BME280;48558;48.242;11.654;2023-10-08T07:45:40;97008.88;;;18.77;50.44
62510;BME280;48558;48.242;11.654;2023-10-08T07:49:57;97022.13;;;18.82;48.94
62510;BME280;48558;48.242;11.654;2023-10-08T07:54:11;97000.63;;;18.62;49.51
62510;BME280;48558;48.242;11.654;2023-10-08T07:58:28;97003.31;;;18.82;49.21
62510;BME280;48558;48.242;11.654;2023-10-08T08:02:41;97010.19;;;18.87;50.69
62510;BME280;48558;48.242;11.654;2023-10-08T08:06:54;97015.69;;;19.12;49.45
62510;BME280;48558;48.242;11.654;2023-10-08T08:11:07;97018.56;;;19.29;49.13
62510;BME280;48558;48.242;11.654;2023-10-08T08:15:40;97024.25;;;19.40;47.58
62510;BME280;48558;48.242;11.654;2023-10-08T08:19:59;97015.78;;;19.34;48.23
62510;BME280;48558;48.242;11.654;2023-10-08T08:24:18;97027.94;;;19.15;49.31
62510;BME280;48558;48.242;11.654;2023-10-08T08:28:51;97025.03;;;18.98;49.49
62510;BME280;48558;48.242;11.654;2023-10-08T08:33:06;97022.94;;;18.88;50.20
62510;BME280;48558;48.242;11.654;2023-10-08T08:37:33;97024.66;;;18.80;50.31
62510;BME280;48558;48.242;11.654;2023-10-08T08:41:48;97011.03;;;18.93;49.88
62510;BME280;48558;48.242;11.654;2023-10-08T08:46:05;96998.47;;;18.83;50.39
62510;BME280;48558;48.242;11.654;2023-10-08T08:50:19;96996.59;;;19.16;49.84
62510;BME280;48558;48.242;11.654;2023-10-08T08:54:33;96997.13;;;19.15;50.34
62510;BME280;48558;48.242;11.654;2023-10-08T08:58:46;97005.09;;;19.33;49.76
62510;BME280;48558;48.242;11.654;2023-10-08T09:02:59;97021.38;;;19.29;49.53
62510;BME280;48558;48.242;11.654;2023-10-08T09:07:12;97018.03;;;19.25;49.70
62510;BME280;48558;48.242;11.654;2023-10-08T09:11:38;97043.09;;;19.40;49.69
62510;BME280;48558;48.242;11.654;2023-10-08T09:16:07;97054.66;;;19.58;50.01
62510;BME280;48558;48.242;11.654;2023-10-08T09:20:30;97052.91;;;19.72;48.73
62510;BME280;48558;48.242;11.654;2023-10-08T09:24:57;97074.09;;;19.78;49.67
62510;BME280;48558;48.242;11.654;2023-10-08T09:29:11;97071.31;;;20.06;48.41
62510;BME280;48558;48.242;11.654;2023-10-08T09:33:24;97077.03;;;20.39;50.74
62510;BME280;48558;48.242;11.654;2023-10-08T09:37:37;97080.53;;;20.18;49.04
62510;BME280;48558;48.242;11.654;2023-10-08T09:41:54;97084.66;;;20.33;50.85
62510;BME280;48558;48.242;11.654;2023-10-08T09:46:18;97073.72;;;20.35;49.97
62510;BME280;48558;48.242;11.654;2023-10-08T09:50:40;97067.06;;;20.38;47.69
62510;BME280;48558;48.242;11.654;2023-10-08T09:55:00;97071.91;;;20.27;49.91
62510;BME280;48558;48.242;11.654;2023-10-08T09:59:16;97067.56;;;20.59;48.89
62510;BME280;48558;48.242;11.654;2023-10-08T10:03:28;97079.81;;;20.89;50.35
62510;BME280;48558;48.242;11.654;2023-10-08T10:07:43;97093.38;;;21.07;47.88
62510;BME280;48558;48.242;11.654;2023-10-08T10:11:56;97094.38;;;20.93;48.46
62510;BME280;48558;48.242;11.654;2023-10-08T10:16:17;97110.97;;;20.91;48.34
62510;BME280;48558;48.242;11.654;2023-10-08T10:20:31;97108.69;;;20.51;48.94
62510;BME280;48558;48.242;11.654;2023-10-08T10:24:45;97099.72;;;20.47;49.03
62510;BME280;48558;48.242;11.654;2023-10-08T10:33:32;97101.28;;;20.37;49.45
62510;BME280;48558;48.242;11.654;2023-10-08T10:37:49;97107.91;;;20.39;50.52
62510;BME280;48558;48.242;11.654;2023-10-08T10:42:05;97101.00;;;20.40;49.31
62510;BME280;48558;48.242;11.654;2023-10-08T10:46:31;97101.50;;;20.33;50.71
62510;BME280;48558;48.242;11.654;2023-10-08T10:50:45;97098.22;;;20.35;50.63
62510;BME280;48558;48.242;11.654;2023-10-08T10:55:18;97090.28;;;20.33;51.60
62510;BME280;48558;48.242;11.654;2023-10-08T10:59:33;97073.97;;;20.37;51.96
62510;BME280;48558;48.242;11.654;2023-10-08T11:03:56;97053.78;;;20.72;50.20
62510;BME280;48558;48.242;11.654;2023-10-08T11:08:12;97052.25;;;20.65;50.65
62510;BME280;48558;48.242;11.654;2023-10-08T11:12:27;97069.88;;;20.49;49.96
62510;BME280;48558;48.242;11.654;2023-10-08T11:16:55;97072.94;;;20.46;50.75
62510;BME280;48558;48.242;11.654;2023-10-08T11:21:09;97069.88;;;20.22;51.49
62510;BME280;48558;48.242;11.654;2023-10-08T11:25:28;97062.97;;;20.34;51.56
62510;BME280;48558;48.242;11.654;2023-10-08T11:29:44;97054.56;;;20.28;51.79
62510;BME280;48558;48.242;11.654;2023-10-08T11:34:05;97051.75;;;20.34;51.78
62510;BME280;48558;48.242;11.654;2023-10-08T11:38:21;97030.56;;;20.49;52.77
62510;BME280;48558;48.242;11.654;2023-10-08T11:42:34;97045.88;;;20.65;51.82
62510;BME280;48558;48.242;11.654;2023-10-08T11:46:47;97030.31;;;20.42;52.04
62510;BME280;48558;48.242;11.654;2023-10-08T11:51:03;97036.69;;;20.64;51.71
62510;BME280;48558;48.242;11.654;2023-10-08T11:55:18;97044.06;;;20.67;51.32
62510;BME280;48558;48.242;11.654;2023-10-08T11:59:33;97054.28;;;20.54;51.89
62510;BME280;48558;48.242;11.654;2023-10-08T12:03:51;97065.78;;;20.61;51.15
62510;BME280;48558;48.242;11.654;2023-10-08T12:08:09;97058.38;;;20.64;51.34
62510;BME280;48558;48.242;11.654;2023-10-08T12:12:21;97061.44;;;20.66;51.13
62510;BME280;48558;48.242;11.654;2023-10-08T12:16:35;97069.63;;;20.42;51.79
62510;BME280;48558;48.242;11.654;2023-10-08T12:20:48;97060.69;;;20.49;52.76
62510;BME280;48558;48.242;11.654;2023-10-08T12:25:01;97064.00;;;20.47;52.38
62510;BME280;48558;48.242;11.654;2023-10-08T12:29:13;97061.97;;;20.26;53.40
62510;BME280;48558;48.242;11.654;2023-10-08T12:33:26;97066.53;;;20.29;52.77
62510;BME280;48558;48.242;11.654;2023-10-08T12:37:42;97055.06;;;20.32;53.04
62510;BME280;48558;48.242;11.654;2023-10-08T12:41:56;97027.78;;;20.44;53.53
62510;BME280;48558;48.242;11.654;2023-10-08T12:46:18;97029.03;;;20.54;52.98
62510;BME280;48558;48.242;11.654;2023-10-08T12:50:36;97036.16;;;20.77;52.42
62510;BME280;48558;48.242;11.654;2023-10-08T12:54:57;97033.84;;;20.70;52.78
62510;BME280;48558;48.242;11.654;2023-10-08T12:59:15;97034.13;;;20.61;52.77
62510;BME280;48558;48.242;11.654;2023-10-08T13:03:37;97027.47;;;20.75;52.85
62510;BME280;48558;48.242;11.654;2023-10-08T13:07:59;97021.38;;;20.60;53.02
62510;BME280;48558;48.242;11.654;2023-10-08T13:12:21;97012.94;;;20.60;52.47
62510;BME280;48558;48.242;11.654;2023-10-08T13:16:35;97014.47;;;20.66;52.77
62510;BME280;48558;48.242;11.654;2023-10-08T13:20:49;97016.97;;;20.92;52.58
62510;BME280;48558;48.242;11.654;2023-10-08T13:25:04;97050.66;;;21.20;51.76
62510;BME280;48558;48.242;11.654;2023-10-08T13:29:17;97058.44;;;21.55;50.94
62510;BME280;48558;48.242;11.654;2023-10-08T13:33:30;97052.06;;;21.54;52.12
62510;BME280;48558;48.242;11.654;2023-10-08T13:37:44;97050.44;;;21.75;51.79
62510;BME280;48558;48.242;11.654;2023-10-08T13:41:58;97046.44;;;21.49;51.41
62510;BME280;48558;48.242;11.654;2023-10-08T13:46:17;97047.84;;;21.20;52.22
62510;BME280;48558;48.242;11.654;2023-10-08T13:50:31;97039.88;;;21.29;52.01
62510;BME280;48558;48.242;11.654;2023-10-08T13:54:44;97039.19;;;21.07;53.21
62510;BME280;48558;48.242;11.654;2023-10-08T13:59:04;97038.59;;;21.30;52.92
62510;BME280;48558;48.242;11.654;2023-10-08T14:03:27;97050.13;;;21.21;52.75
62510;BME280;48558;48.242;11.654;2023-10-08T14:07:43;97042.00;;;21.07;53.64
62510;BME280;48558;48.242;11.654;2023-10-08T14:12:00;97046.81;;;21.17;54.23
62510;BME280;48558;48.242;11.654;2023-10-08T14:16:13;97035.81;;;21.19;54.62
62510;BME280;48558;48.242;11.654;2023-10-08T14:20:29;97020.41;;;21.42;54.18
62510;BME280;48558;48.242;11.654;2023-10-08T14:24:44;97018.16;;;21.30;55.97
62510;BME280;48558;48.242;11.654;2023-10-08T14:28:58;97024.09;;;21.15;56.01
62510;BME280;48558;48.242;11.654;2023-10-08T14:33:12;97030.72;;;21.18;55.43
62510;BME280;48558;48.242;11.654;2023-10-08T14:37:36;97035.84;;;21.14;55.73
62510;BME280;48558;48.242;11.654;2023-10-08T14:42:07;97030.72;;;21.12;56.34
62510;BME280;48558;48.242;11.654;2023-10-08T14:46:39;97024.63;;;20.97;57.06
62510;BME280;48558;48.242;11.654;2023-10-08T14:50:52;97031.50;;;21.02;56.96
62510;BME280;48558;48.242;11.654;2023-10-08T14:55:05;97037.41;;;20.76;56.98
62510;BME280;48558;48.242;11.654;2023-10-08T14:59:18;97040.00;;;20.57;57.30
62510;BME280;48558;48.242;11.654;2023-10-08T15:03:33;97029.00;;;20.70;57.19
62510;BME280;48558;48.242;11.654;2023-10-08T15:07:50;97030.56;;;20.55;58.59
62510;BME280;48558;48.242;11.654;2023-10-08T15:12:06;97049.69;;;20.29;58.92
62510;BME280;48558;48.242;11.654;2023-10-08T15:16:21;97036.38;;;20.01;60.30
62510;BME280;48558;48.242;11.654;2023-10-08T15:20:34;97047.09;;;20.09;60.33
62510;BME280;48558;48.242;11.654;2023-10-08T15:24:47;97040.72;;;19.91;60.68
62510;BME280;48558;48.242;11.654;2023-10-08T15:29:00;97042.44;;;19.72;61.67
62510;BME280;48558;48.242;11.654;2023-10-08T15:33:13;97047.19;;;19.44;64.88
62510;BME280;48558;48.242;11.654;2023-10-08T15:37:26;97029.72;;;19.18;66.02
62510;BME280;48558;48.242;11.654;2023-10-08T15:41:39;97033.69;;;19.00;68.50
62510;BME280;48558;48.242;11.654;2023-10-08T15:45:52;97036.44;;;18.84;69.98
62510;BME280;48558;48.242;11.654;2023-10-08T15:50:05;97035.31;;;18.70;74.44
62510;BME280;48558;48.242;11.654;2023-10-08T15:54:22;97042.72;;;18.73;77.64
62510;BME280;48558;48.242;11.654;2023-10-08T15:58:35;97039.31;;;18.63;78.94
62510;BME280;48558;48.242;11.654;2023-10-08T16:02:48;97046.94;;;18.57;80.82
62510;BME280;48558;48.242;11.654;2023-10-08T16:07:01;97047.38;;;18.50;83.48
62510;BME280;48558;48.242;11.654;2023-10-08T16:11:14;97036.22;;;18.25;87.32
62510;BME280;48558;48.242;11.654;2023-10-08T16:15:27;97039.19;;;18.16;89.41
62510;BME280;48558;48.242;11.654;2023-10-08T16:19:40;97040.25;;;17.92;91.98
62510;BME280;48558;48.242;11.654;2023-10-08T16:23:53;97044.97;;;17.81;93.63
62510;BME280;48558;48.242;11.654;2023-10-08T16:28:05;97033.16;;;17.71;94.69
62510;BME280;48558;48.242;11.654;2023-10-08T16:32:20;97034.91;;;17.49;97.75
62510;BME280;48558;48.242;11.654;2023-10-08T16:36:33;97039.13;;;17.39;99.95
62510;BME280;48558;48.242;11.654;2023-10-08T16:40:47;97038.63;;;17.20;100.00
62510;BME280;48558;48.242;11.654;2023-10-08T16:44:59;97034.56;;;17.01;100.00
62510;BME280;48558;48.242;11.654;2023-10-08T16:49:12;97046.66;;;16.92;100.00
62510;BME280;48558;48.242;11.654;2023-10-08T16:53:25;97060.72;;;16.83;100.00
62510;BME280;48558;48.242;11.654;2023-10-08T16:57:40;97058.56;;;16.73;100.00
62510;BME280;48558;48.242;11.654;2023-10-08T17:01:53;97062.53;;;16.66;100.00
62510;BME280;48558;48.242;11.654;2023-10-08T17:06:06;97051.94;;;16.56;100.00
62510;BME280;48558;48.242;11.654;2023-10-08T17:10:21;97053.28;;;16.60;100.00
62510;BME280;48558;48.242;11.654;2023-10-08T17:14:34;97055.78;;;16.58;100.00
62510;BME280;48558;48.242;11.654;2023-10-08T17:18:46;97063.38;;;16.43;100.00
62510;BME280;48558;48.242;11.654;2023-10-08T17:22:59;97060.53;;;16.23;100.00
62510;BME280;48558;48.242;11.654;2023-10-08T17:27:12;97071.00;;;16.13;100.00
62510;BME280;48558;48.242;11.654;2023-10-08T17:31:25;97068.59;;;16.06;100.00
62510;BME280;48558;48.242;11.654;2023-10-08T17:35:40;97058.88;;;16.02;100.00
62510;BME280;48558;48.242;11.654;2023-10-08T17:39:54;97053.69;;;16.09;99.33
62510;BME280;48558;48.242;11.654;2023-10-08T17:49:58;97066.00;;;15.88;100.00
62510;BME280;48558;48.242;11.654;2023-10-08T17:54:10;97059.06;;;15.84;100.00
62510;BME280;48558;48.242;11.654;2023-10-08T17:58:23;97060.88;;;15.72;100.00
62510;BME280;48558;48.242;11.654;2023-10-08T18:02:39;97048.94;;;15.57;100.00
62510;BME280;48558;48.242;11.654;2023-10-08T18:06:55;97063.56;;;15.43;100.00
62510;BME280;48558;48.242;11.654;2023-10-08T18:11:08;97054.63;;;15.39;100.00
62510;BME280;48558;48.242;11.654;2023-10-08T18:15:22;97043.66;;;15.44;100.00
62510;BME280;48558;48.242;11.654;2023-10-08T18:19:43;97056.94;;;15.64;100.00
62510;BME280;48558;48.242;11.654;2023-10-08T18:23:57;97062.59;;;15.55;100.00
62510;BME280;48558;48.242;11.654;2023-10-08T18:28:10;97063.81;;;15.54;100.00
62510;BME280;48558;48.242;11.654;2023-10-08T18:32:23;97052.50;;;15.57;100.00
62510;BME280;48558;48.242;11.654;2023-10-08T18:36:35;97041.94;;;15.61;100.00
62510;BME280;48558;48.242;11.654;2023-10-08T18:40:48;97042.59;;;15.56;100.00
62510;BME280;48558;48.242;11.654;2023-10-08T18:45:03;97026.38;;;15.55;100.00
62510;BME280;48558;48.242;11.654;2023-10-08T18:49:18;97016.28;;;15.57;100.00
62510;BME280;48558;48.242;11.654;2023-10-08T18:53:30;97009.75;;;15.46;100.00
62510;BME280;48558;48.242;11.654;2023-10-08T18:57:44;97034.38;;;15.38;100.00
62510;BME280;48558;48.242;11.654;2023-10-08T19:02:03;97044.00;;;15.37;100.00
62510;BME280;48558;48.242;11.654;2023-10-08T19:06:16;97029.72;;;15.44;100.00
62510;BME280;48558;48.242;11.654;2023-10-08T19:10:28;97023.47;;;15.49;100.00
62510;BME280;48558;48.242;11.654;2023-10-08T19:14:42;97040.38;;;15.46;100.00
62510;BME280;48558;48.242;11.654;2023-10-08T19:18:56;97043.16;;;15.46;100.00
62510;BME280;48558;48.242;11.654;2023-10-08T19:23:11;97065.50;;;15.37;100.00
62510;BME280;48558;48.242;11.654;2023-10-08T19:27:23;97073.44;;;15.29;100.00
62510;BME280;48558;48.242;11.654;2023-10-08T19:31:37;97079.09;;;15.58;100.00
62510;BME280;48558;48.242;11.654;2023-10-08T19:35:58;97075.19;;;15.65;100.00
62510;BME280;48558;48.242;11.654;2023-10-08T19:40:11;97069.44;;;15.68;100.00
62510;BME280;48558;48.242;11.654;2023-10-08T19:44:25;97067.66;;;15.56;100.00
62510;BME280;48558;48.242;11.654;2023-10-08T19:48:39;97072.09;;;15.48;100.00
62510;BME280;48558;48.242;11.654;2023-10-08T19:52:52;97065.38;;;15.31;100.00
62510;BME280;48558;48.242;11.654;2023-10-08T19:57:05;97070.53;;;15.24;100.00
62510;BME280;48558;48.242;11.654;2023-10-08T20:01:17;97075.22;;;15.18;100.00
62510;BME280;48558;48.242;11.654;2023-10-08T20:05:31;97067.03;;;15.14;100.00
62510;BME280;48558;48.242;11.654;2023-10-08T20:09:45;97068.34;;;15.04;100.00
62510;BME280;48558;48.242;11.654;2023-10-08T20:13:59;97063.09;;;15.06;100.00
62510;BME280;48558;48.242;11.654;2023-10-08T20:18:12;97067.69;;;15.09;100.00
62510;BME280;48558;48.242;11.654;2023-10-08T20:22:25;97059.06;;;15.07;100.00
62510;BME280;48558;48.242;11.654;2023-10-08T20:26:38;97050.66;;;14.92;100.00
62510;BME280;48558;48.242;11.654;2023-10-08T20:30:50;97053.00;;;14.85;100.00
62510;BME280;48558;48.242;11.654;2023-10-08T20:35:05;97063.38;;;14.84;100.00
62510;BME280;48558;48.242;11.654;2023-10-08T20:39:19;97044.72;;;14.76;100.00
62510;BME280;48558;48.242;11.654;2023-10-08T20:43:41;97041.34;;;14.72;100.00
62510;BME280;48558;48.242;11.654;2023-10-08T20:47:58;97034.34;;;14.76;100.00
62510;BME280;48558;48.242;11.654;2023-10-08T20:52:13;97019.88;;;14.63;100.00
62510;BME280;48558;48.242;11.654;2023-10-08T20:56:27;97025.78;;;14.65;100.00
62510;BME280;48558;48.242;11.654;2023-10-08T21:00:39;97022.97;;;14.32;100.00
62510;BME280;48558;48.242;11.654;2023-10-08T21:04:54;97027.81;;;14.14;100.00
62510;BME280;48558;48.242;11.654;2023-10-08T21:09:09;97020.47;;;13.93;100.00
62510;BME280;48558;48.242;11.654;2023-10-08T21:13:28;97022.22;;;13.81;100.00
62510;BME280;48558;48.242;11.654;2023-10-08T21:17:46;97020.06;;;13.67;100.00
62510;BME280;48558;48.242;11.654;2023-10-08T21:22:06;97029.03;;;13.62;100.00
62510;BME280;48558;48.242;11.654;2023-10-08T21:26:19;97020.84;;;13.58;100.00
62510;BME280;48558;48.242;11.654;2023-10-08T21:30:36;97013.75;;;13.57;100.00
62510;BME280;48558;48.242;11.654;2023-10-08T21:34:49;97013.31;;;13.59;100.00
62510;BME280;48558;48.242;11.654;2023-10-08T21:39:02;96997.72;;;13.52;100.00
62510;BME280;48558;48.242;11.654;2023-10-08T21:43:17;96993.25;;;13.46;100.00
62510;BME280;48558;48.242;11.654;2023-10-08T21:47:29;96995.28;;;13.45;100.00
62510;BME280;48558;48.242;11.654;2023-10-08T21:51:43;96997.72;;;13.34;100.00
62510;BME280;48558;48.242;11.654;2023-10-08T21:55:55;96989.25;;;13.29;100.00
62510;BME280;48558;48.242;11.654;2023-10-08T22:00:12;96980.94;;;13.29;100.00
62510;BME280;48558;48.242;11.654;2023-10-08T22:04:37;96975.84;;;13.36;100.00
62510;BME280;48558;48.242;11.654;2023-10-08T22:08:50;96985.72;;;13.28;100.00
62510;BME280;48558;48.242;11.654;2023-10-08T22:13:03;96981.41;;;13.18;100.00
62510;BME280;48558;48.242;11.654;2023-10-08T22:17:21;96977.56;;;13.16;100.00
62510;BME280;48558;48.242;11.654;2023-10-08T22:21:38;96973.53;;;13.08;100.00
62510;BME280;48558;48.242;11.654;2023-10-08T22:25:53;96975.50;;;12.98;100.00
62510;BME280;48558;48.242;11.654;2023-10-08T22:30:07;96989.56;;;13.04;100.00